sensor_id;sensor_type;location;lat;lon;timestamp;temperature;humidity
56234;DHT22;42141;53.240;6.580;2023-07-02T00:00:54;15.90;99.90
56234;DHT22;42141;53.240;6.580;2023-07-02T00:03:20;15.90;99.90
56234;DHT22;42141;53.240;6.580;2023-07-02T00:05:48;15.90;99.90
56234;DHT22;42141;53.240;6.580;2023-07-02T00:08:16;15.80;99.90
56234;DHT22;42141;53.240;6.580;2023-07-02T00:10:43;15.80;99.90
56234;DHT22;42141;53.240;6.580;2023-07-02T00:13:09;15.80;99.90
56234;DHT22;42141;53.240;6.580;2023-07-02T00:15:34;15.80;99.90
56234;DHT22;42141;53.240;6.580;2023-07-02T00:18:00;15.70;99.90
56234;DHT22;42141;53.240;6.580;2023-07-02T00:20:26;15.70;99.90
56234;DHT22;42141;53.240;6.580;2023-07-02T00:22:52;14.10;99.90
56234;DHT22;42141;53.240;6.580;2023-07-02T00:25:20;15.60;99.90
56234;DHT22;42141;53.240;6.580;2023-07-02T00:27:45;15.70;99.90
56234;DHT22;42141;53.240;6.580;2023-07-02T00:30:11;15.60;99.90
56234;DHT22;42141;53.240;6.580;2023-07-02T00:32:37;15.60;99.90
56234;DHT22;42141;53.240;6.580;2023-07-02T00:35:03;15.60;99.90
56234;DHT22;42141;53.240;6.580;2023-07-02T00:37:29;15.60;99.90
56234;DHT22;42141;53.240;6.580;2023-07-02T00:39:54;15.60;99.90
56234;DHT22;42141;53.240;6.580;2023-07-02T00:42:20;15.50;99.90
56234;DHT22;42141;53.240;6.580;2023-07-02T00:44:46;15.50;99.90
56234;DHT22;42141;53.240;6.580;2023-07-02T00:47:12;15.40;99.90
56234;DHT22;42141;53.240;6.580;2023-07-02T00:49:40;15.40;99.90
56234;DHT22;42141;53.240;6.580;2023-07-02T00:52:06;15.40;99.90
56234;DHT22;42141;53.240;6.580;2023-07-02T00:54:31;15.40;99.90
56234;DHT22;42141;53.240;6.580;2023-07-02T00:56:58;15.30;99.90
56234;DHT22;42141;53.240;6.580;2023-07-02T00:59:31;15.30;99.90
56234;DHT22;42141;53.240;6.580;2023-07-02T01:01:59;15.30;99.90
56234;DHT22;42141;53.240;6.580;2023-07-02T01:04:25;15.30;99.90
56234;DHT22;42141;53.240;6.580;2023-07-02T01:06:53;15.30;99.90
56234;DHT22;42141;53.240;6.580;2023-07-02T01:09:23;15.30;99.90
56234;DHT22;42141;53.240;6.580;2023-07-02T01:12:00;15.30;99.90
56234;DHT22;42141;53.240;6.580;2023-07-02T01:14:32;15.30;99.90
56234;DHT22;42141;53.240;6.580;2023-07-02T01:16:59;15.20;99.90
56234;DHT22;42141;53.240;6.580;2023-07-02T01:22:10;15.20;99.90
56234;DHT22;42141;53.240;6.580;2023-07-02T01:24:39;15.20;99.90
56234;DHT22;42141;53.240;6.580;2023-07-02T01:27:05;15.10;99.90
56234;DHT22;42141;53.240;6.580;2023-07-02T01:29:30;15.10;99.90
56234;DHT22;42141;53.240;6.580;2023-07-02T01:31:57;15.10;99.90
56234;DHT22;42141;53.240;6.580;2023-07-02T01:34:23;15.10;99.90
56234;DHT22;42141;53.240;6.580;2023-07-02T01:36:49;15.10;99.90
56234;DHT22;42141;53.240;6.580;2023-07-02T01:39:15;15.10;99.90
56234;DHT22;42141;53.240;6.580;2023-07-02T01:41:55;15.00;99.90
56234;DHT22;42141;53.240;6.580;2023-07-02T01:44:27;15.00;99.90
56234;DHT22;42141;53.240;6.580;2023-07-02T01:46:52;15.00;99.90
56234;DHT22;42141;53.240;6.580;2023-07-02T01:49:20;15.00;99.90
56234;DHT22;42141;53.240;6.580;2023-07-02T01:51:50;14.90;99.90
56234;DHT22;42141;53.240;6.580;2023-07-02T01:54:16;14.90;99.90
56234;DHT22;42141;53.240;6.580;2023-07-02T01:56:41;14.90;99.90
56234;DHT22;42141;53.240;6.580;2023-07-02T01:59:07;14.90;99.90
56234;DHT22;42141;53.240;6.580;2023-07-02T02:01:33;14.80;99.90
56234;DHT22;42141;53.240;6.580;2023-07-02T02:03:58;14.90;99.90
56234;DHT22;42141;53.240;6.580;2023-07-02T02:06:24;14.80;99.90
56234;DHT22;42141;53.240;6.580;2023-07-02T02:08:50;14.80;99.90
56234;DHT22;42141;53.240;6.580;2023-07-02T02:11:15;15.00;99.90
56234;DHT22;42141;53.240;6.580;2023-07-02T02:13:41;14.80;99.90
56234;DHT22;42141;53.240;6.580;2023-07-02T02:16:07;14.70;99.90
56234;DHT22;42141;53.240;6.580;2023-07-02T02:18:33;14.70;99.90
56234;DHT22;42141;53.240;6.580;2023-07-02T02:20:58;14.70;99.90
56234;DHT22;42141;53.240;6.580;2023-07-02T02:23:24;14.70;99.90
56234;DHT22;42141;53.240;6.580;2023-07-02T02:25:50;14.60;99.90
56234;DHT22;42141;53.240;6.580;2023-07-02T02:28:15;14.60;99.90
56234;DHT22;42141;53.240;6.580;2023-07-02T02:30:41;14.60;99.90
56234;DHT22;42141;53.240;6.580;2023-07-02T02:33:06;14.60;99.90
56234;DHT22;42141;53.240;6.580;2023-07-02T02:35:32;14.60;99.90
56234;DHT22;42141;53.240;6.580;2023-07-02T02:38:00;14.50;99.90
56234;DHT22;42141;53.240;6.580;2023-07-02T02:40:26;14.60;99.90
56234;DHT22;42141;53.240;6.580;2023-07-02T02:42:52;14.70;99.90
56234;DHT22;42141;53.240;6.580;2023-07-02T02:45:17;14.60;99.90
56234;DHT22;42141;53.240;6.580;2023-07-02T02:47:45;14.60;99.90
56234;DHT22;42141;53.240;6.580;2023-07-02T02:50:12;14.50;99.90
56234;DHT22;42141;53.240;6.580;2023-07-02T02:52:39;14.50;99.90
56234;DHT22;42141;53.240;6.580;2023-07-02T02:55:06;14.50;99.90
56234;DHT22;42141;53.240;6.580;2023-07-02T02:57:32;14.50;99.90
56234;DHT22;42141;53.240;6.580;2023-07-02T02:59:58;14.40;99.90
56234;DHT22;42141;53.240;6.580;2023-07-02T03:02:24;14.40;99.90
56234;DHT22;42141;53.240;6.580;2023-07-02T03:04:50;14.40;99.90
56234;DHT22;42141;53.240;6.580;2023-07-02T03:07:16;14.40;99.90
56234;DHT22;42141;53.240;6.580;2023-07-02T03:09:42;14.40;99.90
56234;DHT22;42141;53.240;6.580;2023-07-02T03:12:08;14.40;99.90
56234;DHT22;42141;53.240;6.580;2023-07-02T03:14:34;14.40;99.90
56234;DHT22;42141;53.240;6.580;2023-07-02T03:17:00;14.40;99.90
56234;DHT22;42141;53.240;6.580;2023-07-02T03:19:28;14.40;99.90
56234;DHT22;42141;53.240;6.580;2023-07-02T03:21:54;15.30;99.90
56234;DHT22;42141;53.240;6.580;2023-07-02T03:24:20;14.30;99.90
56234;DHT22;42141;53.240;6.580;2023-07-02T03:26:46;14.30;99.90
56234;DHT22;42141;53.240;6.580;2023-07-02T03:29:12;14.30;99.90
56234;DHT22;42141;53.240;6.580;2023-07-02T03:31:38;14.30;99.90
56234;DHT22;42141;53.240;6.580;2023-07-02T03:34:08;14.30;99.90
56234;DHT22;42141;53.240;6.580;2023-07-02T03:36:35;14.30;99.90
56234;DHT22;42141;53.240;6.580;2023-07-02T03:39:00;14.30;99.90
56234;DHT22;42141;53.240;6.580;2023-07-02T03:41:26;14.30;99.90
56234;DHT22;42141;53.240;6.580;2023-07-02T03:43:52;14.30;99.90
56234;DHT22;42141;53.240;6.580;2023-07-02T03:46:17;13.80;99.90
56234;DHT22;42141;53.240;6.580;2023-07-02T03:48:43;14.40;99.90
56234;DHT22;42141;53.240;6.580;2023-07-02T03:51:09;14.40;99.90
56234;DHT22;42141;53.240;6.580;2023-07-02T03:53:38;14.50;99.90
56234;DHT22;42141;53.240;6.580;2023-07-02T03:56:03;14.50;99.90
56234;DHT22;42141;53.240;6.580;2023-07-02T03:58:29;14.50;99.90
56234;DHT22;42141;53.240;6.580;2023-07-02T04:00:55;14.50;99.90
56234;DHT22;42141;53.240;6.580;2023-07-02T04:03:20;14.50;99.90
56234;DHT22;42141;53.240;6.580;2023-07-02T04:05:46;14.60;99.90
56234;DHT22;42141;53.240;6.580;2023-07-02T04:08:12;14.60;99.90
56234;DHT22;42141;53.240;6.580;2023-07-02T04:10:38;14.70;99.90
56234;DHT22;42141;53.240;6.580;2023-07-02T04:13:03;14.70;99.90
56234;DHT22;42141;53.240;6.580;2023-07-02T04:15:29;14.70;99.90
56234;DHT22;42141;53.240;6.580;2023-07-02T04:17:55;14.70;99.90
56234;DHT22;42141;53.240;6.580;2023-07-02T04:20:20;14.70;99.90
56234;DHT22;42141;53.240;6.580;2023-07-02T04:22:46;14.80;99.90
56234;DHT22;42141;53.240;6.580;2023-07-02T04:25:13;14.80;99.90
56234;DHT22;42141;53.240;6.580;2023-07-02T04:27:42;14.80;99.90
56234;DHT22;42141;53.240;6.580;2023-07-02T04:30:12;14.90;99.90
56234;DHT22;42141;53.240;6.580;2023-07-02T04:32:39;14.90;99.90
56234;DHT22;42141;53.240;6.580;2023-07-02T04:35:06;14.90;99.90
56234;DHT22;42141;53.240;6.580;2023-07-02T04:37:32;15.00;99.90
56234;DHT22;42141;53.240;6.580;2023-07-02T04:39:57;15.00;99.90
56234;DHT22;42141;53.240;6.580;2023-07-02T04:42:23;15.20;99.90
56234;DHT22;42141;53.240;6.580;2023-07-02T04:44:55;15.00;99.90
56234;DHT22;42141;53.240;6.580;2023-07-02T04:47:21;15.10;99.90
56234;DHT22;42141;53.240;6.580;2023-07-02T04:49:47;15.00;99.90
56234;DHT22;42141;53.240;6.580;2023-07-02T04:52:12;15.00;99.90
56234;DHT22;42141;53.240;6.580;2023-07-02T04:54:38;15.00;99.90
56234;DHT22;42141;53.240;6.580;2023-07-02T04:57:04;15.10;99.90
56234;DHT22;42141;53.240;6.580;2023-07-02T04:59:30;15.10;99.90
56234;DHT22;42141;53.240;6.580;2023-07-02T05:01:55;15.20;99.90
56234;DHT22;42141;53.240;6.580;2023-07-02T05:04:21;15.20;99.90
56234;DHT22;42141;53.240;6.580;2023-07-02T05:06:47;14.50;99.90
56234;DHT22;42141;53.240;6.580;2023-07-02T05:09:12;15.40;99.90
56234;DHT22;42141;53.240;6.580;2023-07-02T05:11:38;16.40;99.90
56234;DHT22;42141;53.240;6.580;2023-07-02T05:14:04;15.50;99.90
56234;DHT22;42141;53.240;6.580;2023-07-02T05:16:30;15.60;99.90
56234;DHT22;42141;53.240;6.580;2023-07-02T05:18:55;15.80;99.90
56234;DHT22;42141;53.240;6.580;2023-07-02T05:21:22;16.00;99.90
56234;DHT22;42141;53.240;6.580;2023-07-02T05:23:48;16.10;99.90
56234;DHT22;42141;53.240;6.580;2023-07-02T05:26:14;16.20;99.90
56234;DHT22;42141;53.240;6.580;2023-07-02T05:28:40;16.30;99.90
56234;DHT22;42141;53.240;6.580;2023-07-02T05:31:05;16.30;99.90
56234;DHT22;42141;53.240;6.580;2023-07-02T05:33:31;16.30;99.90
56234;DHT22;42141;53.240;6.580;2023-07-02T05:35:58;16.30;99.90
56234;DHT22;42141;53.240;6.580;2023-07-02T05:38:24;16.30;99.90
56234;DHT22;42141;53.240;6.580;2023-07-02T05:40:50;16.30;99.90
56234;DHT22;42141;53.240;6.580;2023-07-02T05:43:16;16.30;99.90
56234;DHT22;42141;53.240;6.580;2023-07-02T05:45:42;16.40;99.90
56234;DHT22;42141;53.240;6.580;2023-07-02T05:48:07;16.40;99.90
56234;DHT22;42141;53.240;6.580;2023-07-02T05:50:33;16.30;99.90
56234;DHT22;42141;53.240;6.580;2023-07-02T05:52:59;16.40;99.90
56234;DHT22;42141;53.240;6.580;2023-07-02T05:55:25;16.40;99.90
56234;DHT22;42141;53.240;6.580;2023-07-02T05:57:50;16.50;99.90
56234;DHT22;42141;53.240;6.580;2023-07-02T06:00:16;16.60;99.90
56234;DHT22;42141;53.240;6.580;2023-07-02T06:02:45;16.60;99.90
56234;DHT22;42141;53.240;6.580;2023-07-02T06:05:11;15.50;99.90
56234;DHT22;42141;53.240;6.580;2023-07-02T06:07:36;16.70;99.90
56234;DHT22;42141;53.240;6.580;2023-07-02T06:10:02;16.80;99.90
56234;DHT22;42141;53.240;6.580;2023-07-02T06:12:28;16.90;99.90
56234;DHT22;42141;53.240;6.580;2023-07-02T06:14:53;16.90;99.90
56234;DHT22;42141;53.240;6.580;2023-07-02T06:17:19;16.90;99.90
56234;DHT22;42141;53.240;6.580;2023-07-02T06:19:47;17.00;99.90
56234;DHT22;42141;53.240;6.580;2023-07-02T06:22:12;17.10;99.90
56234;DHT22;42141;53.240;6.580;2023-07-02T06:24:38;17.10;99.90
56234;DHT22;42141;53.240;6.580;2023-07-02T06:27:04;17.20;99.90
56234;DHT22;42141;53.240;6.580;2023-07-02T06:29:30;17.30;99.90
56234;DHT22;42141;53.240;6.580;2023-07-02T06:31:55;17.40;99.90
56234;DHT22;42141;53.240;6.580;2023-07-02T06:34:24;17.40;99.90
56234;DHT22;42141;53.240;6.580;2023-07-02T06:36:50;17.50;99.90
56234;DHT22;42141;53.240;6.580;2023-07-02T06:39:15;17.60;99.90
56234;DHT22;42141;53.240;6.580;2023-07-02T06:41:41;17.70;99.90
56234;DHT22;42141;53.240;6.580;2023-07-02T06:44:08;17.80;99.90
56234;DHT22;42141;53.240;6.580;2023-07-02T06:46:33;17.80;99.90
56234;DHT22;42141;53.240;6.580;2023-07-02T06:48:59;17.70;99.90
56234;DHT22;42141;53.240;6.580;2023-07-02T06:51:25;17.70;99.90
56234;DHT22;42141;53.240;6.580;2023-07-02T06:57:33;17.70;99.90
56234;DHT22;42141;53.240;6.580;2023-07-02T06:59:59;17.70;99.90
56234;DHT22;42141;53.240;6.580;2023-07-02T07:02:26;17.70;99.90
56234;DHT22;42141;53.240;6.580;2023-07-02T07:04:53;17.60;99.90
56234;DHT22;42141;53.240;6.580;2023-07-02T07:07:18;17.60;99.90
56234;DHT22;42141;53.240;6.580;2023-07-02T07:09:45;17.60;99.90
56234;DHT22;42141;53.240;6.580;2023-07-02T07:12:10;17.80;99.90
56234;DHT22;42141;53.240;6.580;2023-07-02T07:14:36;17.80;99.90
56234;DHT22;42141;53.240;6.580;2023-07-02T07:17:02;16.60;99.90
56234;DHT22;42141;53.240;6.580;2023-07-02T07:19:28;18.00;99.90
56234;DHT22;42141;53.240;6.580;2023-07-02T07:21:54;18.10;99.90
56234;DHT22;42141;53.240;6.580;2023-07-02T07:24:19;18.30;99.90
56234;DHT22;42141;53.240;6.580;2023-07-02T07:26:45;18.40;99.90
56234;DHT22;42141;53.240;6.580;2023-07-02T07:29:11;18.40;99.90
56234;DHT22;42141;53.240;6.580;2023-07-02T07:31:37;18.40;99.90
56234;DHT22;42141;53.240;6.580;2023-07-02T07:34:02;18.40;99.90
56234;DHT22;42141;53.240;6.580;2023-07-02T07:36:28;18.50;99.90
56234;DHT22;42141;53.240;6.580;2023-07-02T07:38:54;18.70;99.90
56234;DHT22;42141;53.240;6.580;2023-07-02T07:41:20;18.80;99.90
56234;DHT22;42141;53.240;6.580;2023-07-02T07:43:45;18.80;99.90
56234;DHT22;42141;53.240;6.580;2023-07-02T07:46:11;18.80;99.90
56234;DHT22;42141;53.240;6.580;2023-07-02T07:48:37;18.80;99.90
56234;DHT22;42141;53.240;6.580;2023-07-02T07:51:03;18.90;99.90
56234;DHT22;42141;53.240;6.580;2023-07-02T07:53:28;17.70;99.90
56234;DHT22;42141;53.240;6.580;2023-07-02T07:55:54;19.20;99.90
56234;DHT22;42141;53.240;6.580;2023-07-02T07:58:20;19.30;99.90
56234;DHT22;42141;53.240;6.580;2023-07-02T08:00:51;19.50;99.90
56234;DHT22;42141;53.240;6.580;2023-07-02T08:03:17;19.60;99.90
56234;DHT22;42141;53.240;6.580;2023-07-02T08:05:44;19.70;99.90
56234;DHT22;42141;53.240;6.580;2023-07-02T08:08:10;19.90;99.30
56234;DHT22;42141;53.240;6.580;2023-07-02T08:10:35;20.00;98.80
56234;DHT22;42141;53.240;6.580;2023-07-02T08:13:01;20.10;98.80
56234;DHT22;42141;53.240;6.580;2023-07-02T08:15:27;20.00;98.40
56234;DHT22;42141;53.240;6.580;2023-07-02T08:17:52;19.90;98.40
56234;DHT22;42141;53.240;6.580;2023-07-02T08:20:20;19.70;98.00
56234;DHT22;42141;53.240;6.580;2023-07-02T08:22:46;19.40;98.10
56234;DHT22;42141;53.240;6.580;2023-07-02T08:25:11;19.20;98.00
56234;DHT22;42141;53.240;6.580;2023-07-02T08:27:37;18.80;98.10
56234;DHT22;42141;53.240;6.580;2023-07-02T08:30:03;18.60;98.50
56234;DHT22;42141;53.240;6.580;2023-07-02T08:32:29;17.30;98.80
56234;DHT22;42141;53.240;6.580;2023-07-02T08:34:55;18.40;99.90
56234;DHT22;42141;53.240;6.580;2023-07-02T08:37:21;18.30;99.90
56234;DHT22;42141;53.240;6.580;2023-07-02T08:39:49;18.30;99.90
56234;DHT22;42141;53.240;6.580;2023-07-02T08:42:16;18.20;99.90
56234;DHT22;42141;53.240;6.580;2023-07-02T08:44:45;18.10;99.90
56234;DHT22;42141;53.240;6.580;2023-07-02T08:47:11;18.00;99.90
56234;DHT22;42141;53.240;6.580;2023-07-02T08:49:37;18.10;99.90
56234;DHT22;42141;53.240;6.580;2023-07-02T08:52:03;18.40;99.90
56234;DHT22;42141;53.240;6.580;2023-07-02T08:54:31;18.60;99.90
56234;DHT22;42141;53.240;6.580;2023-07-02T08:56:57;18.80;99.90
56234;DHT22;42141;53.240;6.580;2023-07-02T08:59:23;19.00;99.90
56234;DHT22;42141;53.240;6.580;2023-07-02T09:01:50;19.30;99.90
56234;DHT22;42141;53.240;6.580;2023-07-02T09:04:20;19.40;99.90
56234;DHT22;42141;53.240;6.580;2023-07-02T09:06:47;19.30;99.90
56234;DHT22;42141;53.240;6.580;2023-07-02T09:09:13;19.10;99.90
56234;DHT22;42141;53.240;6.580;2023-07-02T09:11:50;19.00;99.90
56234;DHT22;42141;53.240;6.580;2023-07-02T09:19:28;18.60;99.80
56234;DHT22;42141;53.240;6.580;2023-07-02T09:21:56;18.60;99.90
56234;DHT22;42141;53.240;6.580;2023-07-02T09:24:24;18.50;99.80
56234;DHT22;42141;53.240;6.580;2023-07-02T09:26:52;18.60;99.80
56234;DHT22;42141;53.240;6.580;2023-07-02T09:29:30;18.90;99.50
56234;DHT22;42141;53.240;6.580;2023-07-02T09:32:06;19.20;98.70
56234;DHT22;42141;53.240;6.580;2023-07-02T09:34:37;19.50;97.50
56234;DHT22;42141;53.240;6.580;2023-07-02T09:37:05;19.80;98.00
56234;DHT22;42141;53.240;6.580;2023-07-02T09:39:33;20.10;97.30
56234;DHT22;42141;53.240;6.580;2023-07-02T09:42:00;20.30;96.70
56234;DHT22;42141;53.240;6.580;2023-07-02T09:44:33;20.60;96.60
56234;DHT22;42141;53.240;6.580;2023-07-02T09:47:06;20.90;95.50
56234;DHT22;42141;53.240;6.580;2023-07-02T09:49:37;21.00;95.10
56234;DHT22;42141;53.240;6.580;2023-07-02T09:52:08;21.00;94.80
56234;DHT22;42141;53.240;6.580;2023-07-02T09:54:35;21.00;94.60
56234;DHT22;42141;53.240;6.580;2023-07-02T09:57:02;21.00;94.60
56234;DHT22;42141;53.240;6.580;2023-07-02T09:59:29;21.00;94.20
56234;DHT22;42141;53.240;6.580;2023-07-02T10:01:55;21.20;93.80
56234;DHT22;42141;53.240;6.580;2023-07-02T10:04:21;21.50;93.20
56234;DHT22;42141;53.240;6.580;2023-07-02T10:06:54;21.80;92.90
56234;DHT22;42141;53.240;6.580;2023-07-02T10:09:25;21.80;92.00
56234;DHT22;42141;53.240;6.580;2023-07-02T10:12:00;21.60;92.00
56234;DHT22;42141;53.240;6.580;2023-07-02T10:14:43;21.30;92.30
56234;DHT22;42141;53.240;6.580;2023-07-02T10:17:09;21.10;92.00
56234;DHT22;42141;53.240;6.580;2023-07-02T10:19:35;20.90;92.60
56234;DHT22;42141;53.240;6.580;2023-07-02T10:22:02;20.70;92.50
56234;DHT22;42141;53.240;6.580;2023-07-02T10:24:28;20.60;92.70
56234;DHT22;42141;53.240;6.580;2023-07-02T10:27:12;20.50;93.20
56234;DHT22;42141;53.240;6.580;2023-07-02T10:29:38;20.40;92.10
56234;DHT22;42141;53.240;6.580;2023-07-02T10:32:14;20.40;92.60
56234;DHT22;42141;53.240;6.580;2023-07-02T10:34:50;20.50;92.50
56234;DHT22;42141;53.240;6.580;2023-07-02T10:37:16;20.70;92.20
56234;DHT22;42141;53.240;6.580;2023-07-02T10:39:42;20.80;91.90
56234;DHT22;42141;53.240;6.580;2023-07-02T10:42:09;20.70;91.80
56234;DHT22;42141;53.240;6.580;2023-07-02T10:44:47;20.50;92.00
56234;DHT22;42141;53.240;6.580;2023-07-02T10:47:13;20.40;92.20
56234;DHT22;42141;53.240;6.580;2023-07-02T10:49:38;20.20;92.40
56234;DHT22;42141;53.240;6.580;2023-07-02T10:52:04;20.10;92.70
56234;DHT22;42141;53.240;6.580;2023-07-02T10:54:40;20.20;92.40
56234;DHT22;42141;53.240;6.580;2023-07-02T10:57:07;20.60;92.70
56234;DHT22;42141;53.240;6.580;2023-07-02T10:59:33;20.70;92.40
56234;DHT22;42141;53.240;6.580;2023-07-02T11:01:59;21.00;92.40
56234;DHT22;42141;53.240;6.580;2023-07-02T11:04:28;21.20;92.50
56234;DHT22;42141;53.240;6.580;2023-07-02T11:06:54;21.30;92.00
56234;DHT22;42141;53.240;6.580;2023-07-02T11:09:20;21.50;91.60
56234;DHT22;42141;53.240;6.580;2023-07-02T11:11:56;21.80;91.50
56234;DHT22;42141;53.240;6.580;2023-07-02T11:14:34;22.10;90.00
56234;DHT22;42141;53.240;6.580;2023-07-02T11:17:03;23.20;89.90
56234;DHT22;42141;53.240;6.580;2023-07-02T11:19:34;22.30;90.00
56234;DHT22;42141;53.240;6.580;2023-07-02T11:22:00;22.30;89.80
56234;DHT22;42141;53.240;6.580;2023-07-02T11:24:32;22.40;89.60
56234;DHT22;42141;53.240;6.580;2023-07-02T11:27:00;22.50;88.70
56234;DHT22;42141;53.240;6.580;2023-07-02T11:29:30;22.70;88.10
56234;DHT22;42141;53.240;6.580;2023-07-02T11:32:09;22.60;86.50
56234;DHT22;42141;53.240;6.580;2023-07-02T11:34:36;22.40;84.80
56234;DHT22;42141;53.240;6.580;2023-07-02T11:37:03;22.20;86.10
56234;DHT22;42141;53.240;6.580;2023-07-02T11:39:29;22.10;86.00
56234;DHT22;42141;53.240;6.580;2023-07-02T11:41:55;22.10;86.30
56234;DHT22;42141;53.240;6.580;2023-07-02T11:44:21;22.10;85.80
56234;DHT22;42141;53.240;6.580;2023-07-02T11:46:47;22.00;85.20
56234;DHT22;42141;53.240;6.580;2023-07-02T11:49:13;22.00;84.70
56234;DHT22;42141;53.240;6.580;2023-07-02T11:51:40;20.10;84.20
56234;DHT22;42141;53.240;6.580;2023-07-02T11:54:06;22.50;85.60
56234;DHT22;42141;53.240;6.580;2023-07-02T11:56:32;22.60;84.60
56234;DHT22;42141;53.240;6.580;2023-07-02T11:58:58;22.70;84.30
56234;DHT22;42141;53.240;6.580;2023-07-02T12:01:24;22.50;84.20
56234;DHT22;42141;53.240;6.580;2023-07-02T12:03:50;22.30;83.90
56234;DHT22;42141;53.240;6.580;2023-07-02T12:06:16;20.40;82.80
56234;DHT22;42141;53.240;6.580;2023-07-02T12:08:42;22.20;82.70
56234;DHT22;42141;53.240;6.580;2023-07-02T12:11:08;22.10;82.90
56234;DHT22;42141;53.240;6.580;2023-07-02T12:13:34;21.80;83.00
56234;DHT22;42141;53.240;6.580;2023-07-02T12:16:00;21.50;83.40
56234;DHT22;42141;53.240;6.580;2023-07-02T12:18:26;21.30;83.80
56234;DHT22;42141;53.240;6.580;2023-07-02T12:20:52;22.20;84.40
56234;DHT22;42141;53.240;6.580;2023-07-02T12:23:17;20.90;84.20
56234;DHT22;42141;53.240;6.580;2023-07-02T12:25:43;20.90;84.50
56234;DHT22;42141;53.240;6.580;2023-07-02T12:28:09;21.00;85.30
56234;DHT22;42141;53.240;6.580;2023-07-02T12:30:34;19.80;84.40
56234;DHT22;42141;53.240;6.580;2023-07-02T12:33:00;20.90;84.60
56234;DHT22;42141;53.240;6.580;2023-07-02T12:35:28;20.70;84.20
56234;DHT22;42141;53.240;6.580;2023-07-02T12:37:54;20.60;84.60
56234;DHT22;42141;53.240;6.580;2023-07-02T12:40:20;20.50;84.80
56234;DHT22;42141;53.240;6.580;2023-07-02T12:42:47;20.50;85.00
56234;DHT22;42141;53.240;6.580;2023-07-02T12:45:14;20.50;85.10
56234;DHT22;42141;53.240;6.580;2023-07-02T12:47:41;20.50;85.30
56234;DHT22;42141;53.240;6.580;2023-07-02T12:50:08;20.50;85.60
56234;DHT22;42141;53.240;6.580;2023-07-02T12:52:34;20.40;85.60
56234;DHT22;42141;53.240;6.580;2023-07-02T12:55:00;20.30;85.60
56234;DHT22;42141;53.240;6.580;2023-07-02T12:57:26;20.30;85.90
56234;DHT22;42141;53.240;6.580;2023-07-02T12:59:53;20.30;86.10
56234;DHT22;42141;53.240;6.580;2023-07-02T13:02:19;20.40;86.40
56234;DHT22;42141;53.240;6.580;2023-07-02T13:04:45;20.40;85.60
56234;DHT22;42141;53.240;6.580;2023-07-02T13:07:11;20.30;85.50
56234;DHT22;42141;53.240;6.580;2023-07-02T13:09:36;20.20;85.80
56234;DHT22;42141;53.240;6.580;2023-07-02T13:12:02;20.10;86.10
56234;DHT22;42141;53.240;6.580;2023-07-02T13:14:28;20.30;86.80
56234;DHT22;42141;53.240;6.580;2023-07-02T13:16:54;20.70;87.50
56234;DHT22;42141;53.240;6.580;2023-07-02T13:19:19;21.10;86.80
56234;DHT22;42141;53.240;6.580;2023-07-02T13:21:45;21.20;85.50
56234;DHT22;42141;53.240;6.580;2023-07-02T13:24:11;20.90;85.30
56234;DHT22;42141;53.240;6.580;2023-07-02T13:26:38;20.70;85.90
56234;DHT22;42141;53.240;6.580;2023-07-02T13:29:03;20.50;86.40
56234;DHT22;42141;53.240;6.580;2023-07-02T13:31:29;20.40;86.40
56234;DHT22;42141;53.240;6.580;2023-07-02T13:33:55;20.40;86.80
56234;DHT22;42141;53.240;6.580;2023-07-02T13:36:20;20.50;87.40
56234;DHT22;42141;53.240;6.580;2023-07-02T13:38:46;20.50;87.40
56234;DHT22;42141;53.240;6.580;2023-07-02T13:41:12;20.40;87.40
56234;DHT22;42141;53.240;6.580;2023-07-02T13:43:37;20.20;87.10
56234;DHT22;42141;53.240;6.580;2023-07-02T13:46:04;20.00;87.50
56234;DHT22;42141;53.240;6.580;2023-07-02T13:48:30;19.90;88.10
56234;DHT22;42141;53.240;6.580;2023-07-02T13:50:55;20.10;88.40
56234;DHT22;42141;53.240;6.580;2023-07-02T13:53:21;20.20;88.80
56234;DHT22;42141;53.240;6.580;2023-07-02T13:55:47;20.10;88.50
56234;DHT22;42141;53.240;6.580;2023-07-02T13:58:13;20.00;88.60
56234;DHT22;42141;53.240;6.580;2023-07-02T14:00:38;19.80;88.90
56234;DHT22;42141;53.240;6.580;2023-07-02T14:03:05;19.80;89.30
56234;DHT22;42141;53.240;6.580;2023-07-02T14:05:31;19.70;89.70
56234;DHT22;42141;53.240;6.580;2023-07-02T14:07:59;19.70;89.90
56234;DHT22;42141;53.240;6.580;2023-07-02T14:10:25;19.70;90.00
56234;DHT22;42141;53.240;6.580;2023-07-02T14:12:53;19.80;90.20
56234;DHT22;42141;53.240;6.580;2023-07-02T14:15:20;19.80;90.30
56234;DHT22;42141;53.240;6.580;2023-07-02T14:17:46;19.90;90.30
56234;DHT22;42141;53.240;6.580;2023-07-02T14:20:12;19.90;90.30
56234;DHT22;42141;53.240;6.580;2023-07-02T14:22:37;19.80;90.30
56234;DHT22;42141;53.240;6.580;2023-07-02T14:25:04;19.60;90.30
56234;DHT22;42141;53.240;6.580;2023-07-02T14:27:29;19.50;90.30
56234;DHT22;42141;53.240;6.580;2023-07-02T14:29:55;19.40;90.50
56234;DHT22;42141;53.240;6.580;2023-07-02T14:32:22;19.30;90.70
56234;DHT22;42141;53.240;6.580;2023-07-02T14:34:48;19.30;91.00
56234;DHT22;42141;53.240;6.580;2023-07-02T14:37:14;19.20;91.20
56234;DHT22;42141;53.240;6.580;2023-07-02T14:39:40;19.00;91.40
56234;DHT22;42141;53.240;6.580;2023-07-02T14:42:06;18.90;91.70
56234;DHT22;42141;53.240;6.580;2023-07-02T14:44:32;18.80;92.00
56234;DHT22;42141;53.240;6.580;2023-07-02T14:46:58;18.70;92.10
56234;DHT22;42141;53.240;6.580;2023-07-02T14:49:24;18.70;92.30
56234;DHT22;42141;53.240;6.580;2023-07-02T14:51:51;18.80;92.60
56234;DHT22;42141;53.240;6.580;2023-07-02T14:54:17;19.00;92.70
56234;DHT22;42141;53.240;6.580;2023-07-02T14:56:43;19.10;92.60
56234;DHT22;42141;53.240;6.580;2023-07-02T14:59:08;19.10;92.40
56234;DHT22;42141;53.240;6.580;2023-07-02T15:01:34;19.10;92.10
56234;DHT22;42141;53.240;6.580;2023-07-02T15:04:00;19.10;91.80
56234;DHT22;42141;53.240;6.580;2023-07-02T15:06:26;19.00;91.70
56234;DHT22;42141;53.240;6.580;2023-07-02T15:08:54;19.00;91.90
56234;DHT22;42141;53.240;6.580;2023-07-02T15:11:20;19.10;91.80
56234;DHT22;42141;53.240;6.580;2023-07-02T15:13:46;19.50;91.70
56234;DHT22;42141;53.240;6.580;2023-07-02T15:16:12;19.80;91.30
56234;DHT22;42141;53.240;6.580;2023-07-02T15:18:40;20.00;91.00
56234;DHT22;42141;53.240;6.580;2023-07-02T15:21:06;20.10;90.30
56234;DHT22;42141;53.240;6.580;2023-07-02T15:23:35;20.00;88.80
56234;DHT22;42141;53.240;6.580;2023-07-02T15:26:03;19.90;87.80
56234;DHT22;42141;53.240;6.580;2023-07-02T15:28:29;19.90;87.60
56234;DHT22;42141;53.240;6.580;2023-07-02T15:31:02;19.80;87.40
56234;DHT22;42141;53.240;6.580;2023-07-02T15:33:28;19.80;86.90
56234;DHT22;42141;53.240;6.580;2023-07-02T15:35:54;19.80;87.10
56234;DHT22;42141;53.240;6.580;2023-07-02T15:38:20;19.80;87.20